Time;durP1;ratioP1;P1;durP2;ratioP2;P2;SDS_P1;SDS_P2;PMS_P1;PMS_P2;Temp;Humidity;BMP_temperature;BMP_pressure;BME280_temperature;BME280_humidity;BME280_pressure;Samples;Min_cycle;Max_cycle;Signal;HPM_P1;HPM_P2
2022/05/12 00:02:13;;;;;;;2.47;1.80;;;;;;;18.44;57.99;96683.38;10467560;28;20486;-24
2022/05/12 00:07:14;;;;;;;2.47;1.48;;;;;;;18.44;58.12;96688.47;10451933;28;20033;-23
2022/05/12 00:12:14;;;;;;;4.18;1.85;;;;;;;18.43;58.16;96694.38;10486979;28;20067;-23
2022/05/12 00:17:15;;;;;;;2.17;1.58;;;;;;;18.41;58.31;96694.38;10479218;28;20036;-22
2022/05/12 00:22:15;;;;;;;1.85;1.73;;;;;;;18.67;59.41;96696.91;10464878;28;20040;-23
2022/05/12 00:27:16;;;;;;;2.50;1.70;;;;;;;18.79;59.74;96694.31;10454672;28;20083;-23
2022/05/12 00:32:16;;;;;;;2.03;1.87;;;;;;;18.68;58.58;96696.03;10451831;28;20313;-24
2022/05/12 00:37:16;;;;;;;2.25;1.70;;;;;;;18.56;58.00;96693.50;10491607;28;20449;-23
2022/05/12 00:42:17;;;;;;;1.50;1.40;;;;;;;18.50;57.63;96698.59;10453881;28;20025;-24
2022/05/12 00:47:17;;;;;;;2.93;2.10;;;;;;;18.47;58.12;96703.66;10449655;28;20475;-24
2022/05/12 00:52:26;;;;;;;1.80;1.70;;;;;;;18.45;57.97;96700.28;10449495;28;20135;-23
2022/05/12 00:57:38;;;;;;;1.88;1.75;;;;;;;18.43;58.13;96692.66;10488081;28;20036;-22
2022/05/12 01:02:40;;;;;;;2.10;1.63;;;;;;;18.41;58.20;96701.16;10484537;28;20495;-24
2022/05/12 01:07:40;;;;;;;1.80;1.70;;;;;;;18.41;58.28;96701.16;10449717;28;20041;-23
2022/05/12 01:12:45;;;;;;;1.77;1.67;;;;;;;18.42;58.24;96697.75;10449274;28;20060;-24
2022/05/12 01:17:46;;;;;;;2.20;1.60;;;;;;;18.64;59.63;96692.66;10449518;28;20128;-23
2022/05/12 01:22:59;;;;;;;3.40;2.13;;;;;;;18.81;60.42;96700.25;10466464;28;20119;-23
2022/05/12 01:28:00;;;;;;;1.70;1.60;;;;;;;18.70;58.53;96696.88;10472777;28;20499;-23
2022/05/12 01:33:00;;;;;;;1.75;1.65;;;;;;;18.56;57.98;96699.44;10477838;28;20119;-23
2022/05/12 01:38:00;;;;;;;2.00;1.77;;;;;;;18.50;58.06;96703.69;10485784;28;20028;-24
2022/05/12 01:43:01;;;;;;;3.97;1.90;;;;;;;18.50;57.94;96703.69;10475316;28;20024;-24
2022/05/12 01:48:03;;;;;;;1.73;1.40;;;;;;;18.44;58.03;96708.72;10485207;28;20089;-23
2022/05/12 01:53:03;;;;;;;1.65;1.55;;;;;;;18.45;58.04;96718.03;10495244;28;20037;-28
2022/05/12 01:58:05;;;;;;;1.88;1.60;;;;;;;18.45;58.08;96718.88;10456327;28;20041;-24
2022/05/12 02:03:05;;;;;;;2.38;1.70;;;;;;;18.46;58.32;96717.19;10462636;28;20029;-24
2022/05/12 02:08:08;;;;;;;2.57;1.80;;;;;;;18.44;58.27;96714.66;10457399;28;20036;-22
2022/05/12 02:13:11;;;;;;;1.60;1.50;;;;;;;18.61;60.59;96727.31;10496458;28;20044;-23
2022/05/12 02:18:12;;;;;;;1.67;1.58;;;;;;;18.80;60.51;96723.91;10477542;28;20032;-23
2022/05/12 02:23:12;;;;;;;1.65;1.35;;;;;;;18.77;59.24;96741.69;10472486;28;20017;-23
2022/05/12 02:28:13;;;;;;;2.43;1.70;;;;;;;18.62;58.40;96741.69;10462847;28;20039;-23
2022/05/12 02:33:13;;;;;;;1.75;1.65;;;;;;;18.59;57.93;96750.13;10495348;28;20309;-22
2022/05/12 02:38:14;;;;;;;1.80;1.50;;;;;;;18.53;58.04;96749.28;10490060;28;20033;-23
2022/05/12 02:43:24;;;;;;;2.15;1.77;;;;;;;18.49;58.00;96748.44;10461443;28;20638;-23
2022/05/12 02:48:28;;;;;;;1.42;1.33;;;;;;;18.47;58.11;96747.59;10495236;28;20038;-23
2022/05/12 02:53:29;;;;;;;1.90;1.80;;;;;;;18.46;57.98;96762.81;10475802;28;20033;-22
2022/05/12 02:58:30;;;;;;;1.67;1.58;;;;;;;18.46;57.94;96756.06;10455453;28;20044;-23
2022/05/12 03:03:31;;;;;;;3.72;1.75;;;;;;;18.44;57.99;96752.69;10467460;28;20119;-21
2022/05/12 03:08:31;;;;;;;2.10;1.90;;;;;;;18.48;59.63;96754.38;10456342;28;20111;-22
2022/05/12 03:13:32;;;;;;;1.80;1.55;;;;;;;18.74;59.28;96759.44;10455014;28;20503;-21
2022/05/12 03:18:32;;;;;;;2.20;1.52;;;;;;;18.82;58.12;96767.91;10455658;28;20040;-21
2022/05/12 03:23:33;;;;;;;2.13;1.93;;;;;;;18.68;58.54;96777.19;10473442;28;20075;-21
2022/05/12 03:28:33;;;;;;;1.80;1.50;;;;;;;18.57;57.99;96771.28;10455090;28;20158;-23
2022/05/12 03:33:35;;;;;;;1.30;1.20;;;;;;;18.46;57.98;96772.94;10454985;28;20112;-22
2022/05/12 03:38:36;;;;;;;1.75;1.42;;;;;;;18.48;57.83;96778.84;10455032;28;20040;-21
2022/05/12 03:48:55;;;;;;;2.08;1.45;;;;;;;18.46;58.13;96793.22;10454017;28;20062;-22
2022/05/12 03:53:56;;;;;;;2.05;1.40;;;;;;;18.42;58.09;96789.00;10453429;28;20163;-22
2022/05/12 03:58:56;;;;;;;2.97;1.80;;;;;;;18.46;58.02;96799.16;10456254;28;20488;-21
2022/05/12 04:03:57;;;;;;;1.80;1.70;;;;;;;18.45;57.98;96811.81;10484588;28;20028;-23
2022/05/12 04:08:57;;;;;;;3.85;1.88;;;;;;;18.63;59.89;96809.31;10486086;28;20036;-23
2022/05/12 04:13:58;;;;;;;2.10;1.70;;;;;;;18.81;62.39;96824.53;10454590;28;20466;-21
2022/05/12 04:18:59;;;;;;;4.13;1.77;;;;;;;18.76;58.74;96834.66;10455550;28;20037;-21
2022/05/12 04:24:05;;;;;;;3.08;1.50;;;;;;;18.63;58.30;96833.00;10480386;28;20041;-23
2022/05/12 04:29:07;;;;;;;2.30;2.03;;;;;;;18.55;57.87;96839.75;10479473;28;20518;-22
2022/05/12 04:39:27;;;;;;;2.55;1.30;;;;;;;18.49;57.98;96864.25;10472982;28;20025;-21
2022/05/12 04:44:27;;;;;;;2.50;1.75;;;;;;;18.47;57.97;96869.28;10451771;28;20495;-22
2022/05/12 04:49:28;;;;;;;1.60;1.50;;;;;;;18.45;57.93;96873.53;10450978;28;20133;-22
2022/05/12 04:54:29;;;;;;;4.13;1.52;;;;;;;18.40;58.03;96859.16;10449016;28;20297;-22
2022/05/12 04:59:32;;;;;;;3.83;1.63;;;;;;;18.48;58.27;96882.81;10449328;28;20130;-22
2022/05/12 05:04:32;;;;;;;6.85;2.47;;;;;;;18.40;58.08;96881.97;10455351;28;20033;-21
2022/05/12 05:09:33;;;;;;;11.20;2.10;;;;;;;18.72;59.93;96896.41;10447187;28;20091;-21
2022/05/12 05:14:33;;;;;;;4.70;1.33;;;;;;;18.83;58.29;96907.41;10449178;28;20033;-22
2022/05/12 05:19:35;;;;;;;4.03;1.67;;;;;;;18.72;58.35;96918.38;10457244;28;20055;-22
2022/05/12 05:24:36;;;;;;;4.28;1.58;;;;;;;18.63;58.08;96910.75;10474716;28;20507;-21
2022/05/12 05:29:40;;;;;;;7.90;1.88;;;;;;;18.53;57.73;96921.69;10457509;28;20102;-21
2022/05/12 05:34:41;;;;;;;18.77;2.63;;;;;;;18.49;58.79;96914.94;10482280;28;20038;-20
2022/05/12 05:39:41;;;;;;;17.10;3.50;;;;;;;18.53;57.84;96942.84;10461127;28;20520;-23
2022/05/12 05:44:42;;;;;;;6.90;2.03;;;;;;;18.49;57.61;96946.19;10454198;28;20071;-22
2022/05/12 05:49:43;;;;;;;7.53;2.20;;;;;;;18.51;57.75;96953.81;10456420;28;20407;-22
2022/05/12 05:54:43;;;;;;;8.48;2.72;;;;;;;18.53;57.88;96964.81;10456069;28;20056;-23
2022/05/12 05:59:44;;;;;;;4.03;2.22;;;;;;;18.51;57.88;96969.03;10456260;28;20059;-22
2022/05/12 06:04:44;;;;;;;8.37;2.67;;;;;;;18.53;59.59;96977.47;10476007;28;20036;-22
2022/05/12 06:09:45;;;;;;;4.87;2.43;;;;;;;18.75;58.73;96986.88;10455838;28;20043;-22
2022/05/12 06:14:46;;;;;;;1.42;1.33;;;;;;;18.84;57.72;96997.03;10455492;28;20297;-21
2022/05/12 06:19:48;;;;;;;1.70;1.50;;;;;;;18.70;58.71;96997.00;10489965;28;20036;-22
2022/05/12 06:24:49;;;;;;;3.83;1.63;;;;;;;18.62;58.11;96980.06;10478910;28;20094;-22
2022/05/12 06:29:49;;;;;;;4.63;2.10;;;;;;;18.57;57.53;96989.34;10454713;28;20040;-22
2022/05/12 06:34:49;;;;;;;2.67;1.48;;;;;;;18.53;57.70;96987.63;10486230;28;20029;-22
2022/05/12 06:39:50;;;;;;;3.03;1.60;;;;;;;18.50;57.83;96980.03;10478759;28;20041;-21
2022/05/12 06:44:50;;;;;;;3.43;1.63;;;;;;;18.49;57.68;96985.94;10454142;28;20407;-22
2022/05/12 06:49:52;;;;;;;2.60;1.97;;;;;;;18.48;57.70;96990.13;10474185;28;20046;-22
2022/05/12 06:54:52;;;;;;;3.88;1.70;;;;;;;18.48;57.61;96992.69;10477639;28;20036;-22
2022/05/12 06:59:54;;;;;;;3.43;2.13;;;;;;;18.48;57.67;96996.88;10454675;28;20106;-21
2022/05/12 07:04:55;;;;;;;4.00;2.33;;;;;;;18.53;59.89;97002.84;10491473;28;20036;-21
2022/05/12 07:09:55;;;;;;;1.63;1.50;;;;;;;18.77;58.34;97010.53;10476728;28;20112;-21
2022/05/12 07:14:56;;;;;;;1.40;1.30;;;;;;;18.85;58.50;97009.72;10452810;28;20029;-22
2022/05/12 07:35:57;;;;;;;2.17;1.50;;;;;;;18.52;57.66;97012.16;10487081;28;20040;-23
2022/05/12 07:40:58;;;;;;;3.88;1.48;;;;;;;18.52;57.70;97017.22;10466508;28;20033;-22
2022/05/12 07:45:58;;;;;;;2.03;1.80;;;;;;;18.50;57.81;97020.59;10451525;28;20120;-22
2022/05/12 07:50:59;;;;;;;4.00;1.67;;;;;;;18.49;57.75;97031.56;10452444;28;20043;-22
2022/05/12 07:56:00;;;;;;;2.08;1.80;;;;;;;18.49;57.69;97034.09;10450125;28;20029;-22
2022/05/12 08:01:01;;;;;;;2.08;1.48;;;;;;;18.47;57.84;97033.22;10454422;28;20041;-23
2022/05/12 08:06:02;;;;;;;3.22;2.10;;;;;;;18.55;60.76;97036.66;10451264;28;20036;-22
2022/05/12 08:11:05;;;;;;;2.45;1.58;;;;;;;18.78;58.81;97037.59;10451217;28;20057;-22
2022/05/12 08:16:06;;;;;;;3.25;1.52;;;;;;;18.77;57.88;97028.31;10451086;28;20037;-23
2022/05/12 08:21:07;;;;;;;2.20;1.90;;;;;;;18.64;57.70;97037.56;10455567;28;20042;-21
2022/05/12 08:26:08;;;;;;;1.43;1.33;;;;;;;18.55;57.62;97034.09;10490595;28;20028;-22
2022/05/12 08:31:09;;;;;;;3.38;1.77;;;;;;;18.52;57.69;97031.56;10491790;28;20032;-22
2022/05/12 08:36:10;;;;;;;2.38;1.40;;;;;;;18.51;58.14;97029.88;10449750;28;20086;-22
2022/05/12 08:41:17;;;;;;;3.80;1.42;;;;;;;18.49;57.72;97022.25;10450562;28;20037;-22
2022/05/12 08:46:21;;;;;;;3.45;1.33;;;;;;;18.51;57.88;97022.28;10449780;28;20025;-22
2022/05/12 08:51:22;;;;;;;2.78;1.98;;;;;;;18.50;57.79;97012.97;10449991;28;20045;-22
2022/05/12 08:56:25;;;;;;;6.15;1.95;;;;;;;18.42;57.88;97014.63;10457712;28;20040;-22
2022/05/12 09:01:54;;;;;;;3.10;1.73;;;;;;;18.48;57.78;97025.63;10491094;28;20090;-21
2022/05/12 09:07:08;;;;;;;2.33;1.58;;;;;;;18.67;59.13;97018.97;10462887;28;20534;-22
2022/05/12 09:12:27;;;;;;;2.33;1.67;;;;;;;18.85;58.60;97022.41;10449213;28;20512;-22
2022/05/12 09:17:38;;;;;;;1.48;1.33;;;;;;;18.77;58.51;97016.44;10449466;28;20040;-23
2022/05/12 09:22:41;;;;;;;2.67;1.65;;;;;;;18.73;58.74;97016.44;10466213;28;20499;-22
2022/05/12 09:27:44;;;;;;;3.08;1.60;;;;;;;18.64;58.11;97009.66;10449218;28;20043;-21
2022/05/12 09:32:57;;;;;;;2.60;1.98;;;;;;;18.62;58.24;97007.94;10448047;28;20040;-23
2022/05/12 09:37:57;;;;;;;4.82;1.70;;;;;;;18.55;57.63;96996.94;10448679;28;20037;-22
2022/05/12 09:43:01;;;;;;;3.17;1.65;;;;;;;18.54;57.70;96994.38;10448393;28;20119;-22
2022/05/12 09:48:18;;;;;;;3.78;1.98;;;;;;;18.54;57.78;96989.31;10448082;28;20033;-22
2022/05/12 09:53:29;;;;;;;3.65;1.70;;;;;;;18.53;57.60;96992.69;10450984;28;20033;-22
2022/05/12 09:58:36;;;;;;;2.40;2.00;;;;;;;18.56;57.92;96991.03;10490569;28;20078;-21
2022/05/12 10:09:08;;;;;;;2.65;1.15;;;;;;;18.76;58.69;96981.78;10455395;28;20484;-22
2022/05/12 10:14:19;;;;;;;1.80;1.30;;;;;;;18.90;59.02;96989.44;10455212;28;20068;-22
2022/05/12 10:19:22;;;;;;;1.13;1.00;;;;;;;18.76;57.31;96986.03;10473950;28;20109;-22
2022/05/12 10:24:58;;;;;;;1.10;1.00;;;;;;;18.64;57.58;96975.81;10482311;28;20446;-22
2022/05/12 10:30:15;;;;;;;1.50;1.40;;;;;;;18.60;57.82;96986.81;10451515;28;20045;-21
2022/05/12 10:35:41;;;;;;;2.40;1.42;;;;;;;18.57;57.80;96971.59;10454555;28;20033;-22
2022/05/12 10:41:25;;;;;;;1.38;1.27;;;;;;;18.56;58.03;96967.34;10455245;28;20059;-22
2022/05/12 10:46:44;;;;;;;4.70;1.40;;;;;;;18.54;57.71;96974.09;10454342;28;20032;-23
2022/05/12 10:52:17;;;;;;;1.10;1.00;;;;;;;18.51;57.80;96959.72;10454162;28;20047;-22
2022/05/12 10:57:49;;;;;;;6.18;1.90;;;;;;;18.58;58.73;96955.53;10453648;28;20422;-22
2022/05/12 11:03:04;;;;;;;7.80;2.00;;;;;;;18.56;58.34;96958.06;10462534;28;20272;-21
2022/05/12 11:08:49;;;;;;;13.93;2.72;;;;;;;18.70;60.04;96955.56;10453736;28;20433;-22
2022/05/12 11:13:53;;;;;;;4.70;1.70;;;;;;;18.91;59.02;96942.94;10452908;28;20064;-22
2022/05/12 11:19:03;;;;;;;2.38;2.05;;;;;;;18.77;57.53;96947.13;10452387;28;20108;-22
2022/05/12 11:24:23;;;;;;;2.88;1.30;;;;;;;18.64;57.72;96940.31;10459713;28;20076;-22
2022/05/12 11:29:48;;;;;;;4.32;1.77;;;;;;;18.63;57.90;96943.69;10452747;28;20029;-21
2022/05/12 11:34:52;;;;;;;7.22;3.60;;;;;;;18.58;58.13;96940.31;10451974;28;20523;-22
2022/05/12 11:39:56;;;;;;;7.25;3.47;;;;;;;18.52;57.82;96931.00;10451392;28;20039;-24
2022/05/12 11:44:58;;;;;;;4.45;3.00;;;;;;;18.55;57.88;96940.28;10451696;28;20036;-21
2022/05/12 11:50:27;;;;;;;7.90;3.85;;;;;;;18.54;58.11;96933.53;10451352;28;20039;-22
2022/05/12 11:55:56;;;;;;;7.72;4.88;;;;;;;18.53;58.04;96937.78;10478359;28;20115;-23
2022/05/12 12:00:59;;;;;;;6.25;4.10;;;;;;;18.53;57.99;96926.78;10484631;28;20084;-22
2022/05/12 12:06:04;;;;;;;18.27;11.30;;;;;;;18.60;60.25;96925.97;10450769;28;20068;-22
2022/05/12 12:11:14;;;;;;;10.85;5.68;;;;;;;18.87;58.80;96926.88;10451929;28;20033;-21
2022/05/12 12:16:18;;;;;;;5.30;3.15;;;;;;;18.90;57.43;96910.78;10465676;28;20044;-22
2022/05/12 12:21:36;;;;;;;4.20;2.33;;;;;;;18.70;57.59;96917.53;10491392;28;20089;-21
2022/05/12 12:26:38;;;;;;;5.28;2.20;;;;;;;18.62;57.73;96911.59;10458467;28;20063;-21
2022/05/12 12:31:43;;;;;;;3.50;2.60;;;;;;;18.58;58.00;96912.44;10450273;28;20403;-21
2022/05/12 12:36:47;;;;;;;4.32;3.10;;;;;;;18.58;58.03;96914.97;10449883;28;20446;-22
2022/05/12 12:41:47;;;;;;;3.97;2.90;;;;;;;18.57;58.02;96913.28;10481694;28;20384;-21
2022/05/12 12:47:08;;;;;;;5.50;3.60;;;;;;;18.56;58.08;96916.63;10491292;28;20032;-22
2022/05/12 12:52:10;;;;;;;3.97;2.63;;;;;;;18.55;58.02;96904.78;10473107;28;20521;-22
2022/05/12 12:57:21;;;;;;;6.68;3.45;;;;;;;18.53;58.07;96909.03;10454541;28;20464;-21
2022/05/12 13:02:31;;;;;;;8.23;4.20;;;;;;;18.54;58.06;96903.97;10467883;28;20035;-22
2022/05/12 13:07:33;;;;;;;6.53;3.63;;;;;;;18.72;59.28;96887.94;10474414;28;20483;-23
2022/05/12 13:12:34;;;;;;;5.53;2.92;;;;;;;18.94;58.45;96880.38;10462015;28;20037;-23
2022/05/12 13:17:38;;;;;;;3.83;2.58;;;;;;;18.93;57.84;96877.81;10451293;28;20041;-21
2022/05/12 13:22:53;;;;;;;9.45;4.13;;;;;;;18.72;58.48;96862.56;10483265;28;20029;-21
2022/05/12 13:27:53;;;;;;;8.45;3.42;;;;;;;18.68;58.45;96876.94;10490394;28;20494;-21
2022/05/12 13:33:12;;;;;;;10.02;2.67;;;;;;;18.63;58.36;96860.03;10480936;28;20111;-22
2022/05/12 13:38:20;;;;;;;10.35;3.72;;;;;;;18.60;58.26;96863.38;10451656;28;20548;-22
2022/05/12 13:43:45;;;;;;;11.52;4.78;;;;;;;18.61;58.43;96849.03;10466460;28;20095;-22
2022/05/12 13:48:59;;;;;;;7.85;3.60;;;;;;;18.58;58.34;96854.94;10455671;28;20045;-21
2022/05/12 13:54:08;;;;;;;14.10;3.33;;;;;;;18.58;58.52;96843.97;10464025;28;20032;-21
2022/05/12 13:59:29;;;;;;;11.32;3.55;;;;;;;18.58;58.48;96844.81;10497664;28;20344;-22
2022/05/12 14:04:29;;;;;;;16.38;5.30;;;;;;;18.58;58.46;96838.91;10496181;28;20043;-22
2022/05/12 14:09:32;;;;;;;5.80;3.38;;;;;;;18.79;59.36;96839.75;10482601;28;20383;-22
2022/05/12 14:20:15;;;;;;;4.93;3.38;;;;;;;18.85;58.01;96821.16;10446387;28;20454;-22
2022/05/12 14:25:17;;;;;;;6.30;2.50;;;;;;;18.72;57.88;96822.84;10473444;28;20029;-21
2022/05/12 14:30:18;;;;;;;3.83;2.40;;;;;;;18.66;58.22;96819.47;10454870;28;20117;-22
2022/05/12 14:35:27;;;;;;;8.73;3.55;;;;;;;18.62;58.29;96815.22;10487065;28;20123;-22
2022/05/12 14:40:27;;;;;;;10.55;3.28;;;;;;;18.61;58.34;96808.47;10477532;28;20115;-23
2022/05/12 14:45:28;;;;;;;4.72;3.22;;;;;;;18.60;58.03;96809.31;10494688;28;20115;-22
2022/05/12 14:50:29;;;;;;;6.88;3.15;;;;;;;18.58;58.40;96811.84;10470627;28;20088;-23
2022/05/12 14:55:29;;;;;;;7.95;3.20;;;;;;;18.59;58.28;96800.84;10453398;28;20346;-21
2022/05/12 15:00:34;;;;;;;7.45;2.83;;;;;;;18.58;58.38;96785.66;10489803;28;20037;-21
2022/05/12 15:05:34;;;;;;;6.28;3.47;;;;;;;18.60;58.26;96786.50;10493380;28;20441;-21
2022/05/12 15:10:35;;;;;;;6.55;2.58;;;;;;;18.88;58.97;96788.16;10472225;28;20036;-22
2022/05/12 15:15:37;;;;;;;4.30;2.20;;;;;;;19.02;58.39;96797.47;10453508;28;20518;-21
2022/05/12 15:20:37;;;;;;;2.40;2.20;;;;;;;18.85;57.89;96789.00;10461834;28;20638;-22
2022/05/12 15:25:38;;;;;;;6.87;2.50;;;;;;;18.79;57.57;96800.84;10470581;28;20025;-22
2022/05/12 15:30:38;;;;;;;3.55;2.25;;;;;;;18.71;58.10;96825.38;10452318;28;20071;-23
2022/05/12 15:35:40;;;;;;;3.93;2.70;;;;;;;18.67;58.28;96823.69;10491487;28;20037;-23
2022/05/12 15:40:42;;;;;;;4.80;3.30;;;;;;;18.63;58.32;96827.06;10469189;28;20110;-21
2022/05/12 15:45:44;;;;;;;4.90;2.50;;;;;;;18.64;58.25;96823.66;10451289;28;20044;-22
2022/05/12 15:50:47;;;;;;;8.65;3.25;;;;;;;18.48;58.91;96786.47;10459661;28;20032;-22
2022/05/12 15:55:47;;;;;;;14.18;4.22;;;;;;;18.69;58.73;96824.53;10468152;28;20037;-22
2022/05/12 16:00:48;;;;;;;4.18;3.20;;;;;;;18.63;58.29;96833.00;10456033;28;20036;-22
2022/05/12 16:05:49;;;;;;;6.13;3.55;;;;;;;18.62;58.33;96845.66;10491003;28;20044;-22
2022/05/12 16:10:53;;;;;;;3.47;2.67;;;;;;;18.84;59.41;96867.66;10467302;28;20040;-22
2022/05/12 16:15:55;;;;;;;3.22;2.63;;;;;;;19.04;58.99;96904.91;10474112;28;20032;-22
2022/05/12 16:20:55;;;;;;;2.28;1.90;;;;;;;18.93;58.41;96906.56;10466217;28;20032;-22
2022/05/12 16:25:59;;;;;;;4.90;2.40;;;;;;;18.78;57.89;96920.91;10459904;28;20538;-22
2022/05/12 16:31:00;;;;;;;4.10;2.40;;;;;;;18.71;58.02;96924.28;10449914;28;20108;-22
2022/05/12 16:36:00;;;;;;;3.30;2.60;;;;;;;18.65;58.05;96926.78;10450321;28;20104;-21
2022/05/12 16:41:01;;;;;;;3.40;1.60;;;;;;;18.61;58.41;96922.56;10450228;28;20128;-21
2022/05/12 16:46:03;;;;;;;4.27;1.93;;;;;;;18.60;58.31;96925.97;10449693;28;20374;-21
2022/05/12 16:51:03;;;;;;;3.22;2.13;;;;;;;18.56;58.24;96925.09;10450131;28;20029;-21
2022/05/12 16:56:04;;;;;;;4.37;2.20;;;;;;;18.56;58.27;96919.16;10449017;28;20033;-21
2022/05/12 17:01:05;;;;;;;2.47;2.00;;;;;;;18.55;58.32;96931.00;10457756;28;20032;-21
2022/05/12 17:06:05;;;;;;;3.58;1.80;;;;;;;18.56;58.21;96920.03;10489756;28;20054;-21
2022/05/12 17:11:07;;;;;;;6.00;2.55;;;;;;;18.73;59.23;96909.91;10464999;28;20048;-22
2022/05/12 17:16:09;;;;;;;4.25;2.65;;;;;;;18.98;58.62;96891.34;10481997;28;20081;-22
2022/05/12 17:21:10;;;;;;;3.90;2.42;;;;;;;18.92;58.26;96892.19;10494256;28;20029;-23
2022/05/12 17:26:11;;;;;;;7.40;2.85;;;;;;;18.71;57.83;96878.63;10468617;28;20032;-22
2022/05/12 17:31:11;;;;;;;12.43;4.60;;;;;;;18.70;59.03;96887.09;10498808;28;20093;-22
2022/05/12 17:36:12;;;;;;;8.67;3.37;;;;;;;18.67;58.53;96876.94;10467406;28;20045;-21
2022/05/12 17:41:12;;;;;;;10.02;2.97;;;;;;;18.70;58.60;96889.63;10483694;28;20035;-21
2022/05/12 17:46:13;;;;;;;3.05;2.45;;;;;;;18.71;58.22;96892.16;10456338;28;20041;-22
2022/05/12 17:51:13;;;;;;;11.63;6.10;;;;;;;18.74;61.13;96892.16;10465317;28;20637;-22
2022/05/12 17:56:14;;;;;;;8.07;2.70;;;;;;;18.72;58.49;96896.41;10468974;28;20053;-22
2022/05/12 18:01:14;;;;;;;2.50;2.20;;;;;;;18.71;58.05;96891.31;10464954;28;20036;-22
2022/05/12 18:06:19;;;;;;;2.13;1.90;;;;;;;18.70;57.89;96904.84;10465771;28;20063;-22
2022/05/12 18:11:21;;;;;;;5.95;3.72;;;;;;;18.82;60.11;96935.31;10480363;28;20110;-22
2022/05/12 18:16:22;;;;;;;5.95;3.38;;;;;;;19.02;59.25;96951.41;10490421;28;20035;-22
2022/05/12 18:21:22;;;;;;;6.00;3.20;;;;;;;19.04;58.54;96949.72;10474136;28;20624;-21
2022/05/12 18:26:23;;;;;;;2.55;1.92;;;;;;;18.86;57.90;96944.63;10467368;28;20060;-22
2022/05/12 18:31:23;;;;;;;3.65;2.58;;;;;;;18.81;57.87;96957.28;10454818;28;20033;-22
2022/05/12 18:36:24;;;;;;;3.55;2.20;;;;;;;18.80;57.81;96952.19;10454450;28;20040;-21
2022/05/12 18:41:24;;;;;;;4.30;2.20;;;;;;;18.80;58.40;96937.84;10474514;28;20491;-21
2022/05/12 18:46:25;;;;;;;2.53;2.03;;;;;;;18.78;57.96;96943.75;10473057;28;20044;-21
2022/05/12 18:51:26;;;;;;;4.97;2.55;;;;;;;18.72;58.33;96938.66;10484845;28;20298;-22
2022/05/12 18:56:26;;;;;;;3.50;2.10;;;;;;;18.79;57.78;96958.13;10460539;28;20063;-22
2022/05/12 19:01:27;;;;;;;3.07;2.00;;;;;;;18.79;58.13;96968.25;10474123;28;20036;-22
2022/05/12 19:06:27;;;;;;;4.50;3.63;;;;;;;18.86;60.13;96962.38;10448639;28;20287;-22
2022/05/12 19:11:29;;;;;;;5.03;3.30;;;;;;;19.07;59.68;96963.25;10449503;28;20490;-22
2022/05/12 19:16:30;;;;;;;2.95;2.10;;;;;;;19.01;58.06;96975.09;10449277;28;20621;-21
2022/05/12 19:21:30;;;;;;;3.73;2.10;;;;;;;18.91;58.34;96986.06;10455889;28;20044;-22
2022/05/12 19:26:31;;;;;;;3.33;2.30;;;;;;;18.87;57.84;96974.22;10448291;28;20037;-22
2022/05/12 19:31:31;;;;;;;10.77;2.28;;;;;;;18.82;57.88;96965.75;10448951;28;20838;-22
2022/05/12 19:36:34;;;;;;;3.70;2.50;;;;;;;18.72;58.24;96964.00;10446446;28;20036;-22
2022/05/12 19:41:35;;;;;;;2.78;2.47;;;;;;;18.78;58.23;96994.47;10452916;28;20290;-22
2022/05/12 19:46:35;;;;;;;4.03;1.90;;;;;;;18.76;58.04;96984.31;10451135;28;20025;-22
2022/05/12 19:51:35;;;;;;;3.13;2.00;;;;;;;18.61;58.15;96971.63;10452203;28;20111;-21
2022/05/12 19:56:36;;;;;;;3.03;2.43;;;;;;;18.75;57.99;96994.47;10451851;28;20041;-22
2022/05/12 20:01:38;;;;;;;6.07;2.60;;;;;;;18.75;58.65;97009.69;10462468;28;20279;-21
2022/05/12 20:06:38;;;;;;;5.00;3.28;;;;;;;18.87;60.78;97022.41;10491672;28;20029;-22
2022/05/12 20:11:39;;;;;;;4.38;2.78;;;;;;;19.06;59.57;97019.06;10465525;28;20052;-21
2022/05/12 20:16:39;;;;;;;2.92;2.30;;;;;;;19.09;58.60;97031.78;10449387;28;20037;-21
2022/05/12 20:21:40;;;;;;;3.23;2.07;;;;;;;18.87;57.89;97015.66;10459601;28;20032;-21
2022/05/12 20:26:41;;;;;;;1.90;1.70;;;;;;;18.80;57.98;97026.63;10471199;28;20406;-20
2022/05/12 20:31:41;;;;;;;2.38;1.80;;;;;;;18.76;58.16;97031.69;10491989;28;20032;-23
2022/05/12 20:36:42;;;;;;;2.13;1.83;;;;;;;18.74;58.21;97041.81;10458335;28;20044;-22
2022/05/12 20:41:47;;;;;;;4.43;1.92;;;;;;;18.71;58.22;97038.41;10450079;28;20665;-22
2022/05/12 20:46:48;;;;;;;3.15;2.50;;;;;;;18.71;58.37;97044.34;10448726;28;20037;-21
2022/05/12 20:51:48;;;;;;;2.13;1.93;;;;;;;18.71;58.64;97058.69;10449435;28;20303;-22
2022/05/12 20:56:48;;;;;;;3.57;2.40;;;;;;;18.69;58.61;97070.53;10481347;28;20634;-21
2022/05/12 21:01:49;;;;;;;3.40;2.40;;;;;;;18.70;58.34;97072.22;10487816;28;20278;-23
2022/05/12 21:06:49;;;;;;;4.10;2.70;;;;;;;18.73;60.11;97072.22;10488259;28;20035;-21
2022/05/12 21:11:49;;;;;;;3.35;2.58;;;;;;;18.99;59.49;97066.44;10457896;28;20036;-22
2022/05/12 21:16:54;;;;;;;2.17;1.73;;;;;;;19.10;58.63;97089.31;10448570;28;20070;-21
2022/05/12 21:21:54;;;;;;;5.15;2.28;;;;;;;18.88;58.02;97072.31;10482844;28;20287;-21
2022/05/12 21:26:55;;;;;;;4.13;2.23;;;;;;;18.80;58.11;97071.41;10456316;28;20037;-21
2022/05/12 21:31:56;;;;;;;3.40;2.50;;;;;;;18.75;58.34;97075.66;10447969;28;20587;-22
2022/05/12 21:36:59;;;;;;;2.58;2.03;;;;;;;18.72;58.33;97075.63;10487841;28;20036;-22
2022/05/12 21:41:59;;;;;;;2.78;2.50;;;;;;;18.69;58.58;97068.88;10455859;28;20090;-23
2022/05/12 21:47:00;;;;;;;5.25;2.88;;;;;;;18.65;58.55;97068.81;10485928;28;20033;-22
2022/05/12 21:52:00;;;;;;;2.77;2.50;;;;;;;18.68;58.43;97084.88;10476353;28;20315;-22
2022/05/12 22:02:20;;;;;;;2.55;1.92;;;;;;;18.67;58.27;97082.38;10458280;28;20041;-22
2022/05/12 22:07:21;;;;;;;3.77;2.03;;;;;;;18.67;58.50;97073.06;10455587;28;20036;-22
2022/05/12 22:12:23;;;;;;;3.80;2.43;;;;;;;18.95;59.33;97063.88;10491855;28;20043;-21
2022/05/12 22:17:33;;;;;;;3.10;2.20;;;;;;;19.09;58.01;97072.41;10486196;28;20662;-22
2022/05/12 22:22:34;;;;;;;2.40;2.03;;;;;;;18.94;57.77;97077.41;10471219;28;20029;-21
2022/05/12 22:27:36;;;;;;;2.07;1.70;;;;;;;18.73;57.93;97068.03;10456508;28;20036;-22
2022/05/12 22:32:36;;;;;;;1.83;1.70;;;;;;;18.73;57.99;97072.22;10454744;28;20044;-21
2022/05/12 22:37:37;;;;;;;1.55;1.42;;;;;;;18.71;58.20;97068.84;10454396;28;20044;-23
2022/05/12 22:42:38;;;;;;;2.20;2.00;;;;;;;18.68;58.27;97058.69;10453718;28;20102;-22
2022/05/12 22:47:38;;;;;;;3.07;2.00;;;;;;;18.68;58.17;97076.44;10453971;28;20037;-22
2022/05/12 22:52:41;;;;;;;1.60;1.50;;;;;;;18.67;58.33;97077.31;10453623;28;20288;-22
2022/05/12 22:57:41;;;;;;;2.05;1.85;;;;;;;18.66;58.34;97066.28;10492860;28;20190;-21
2022/05/12 23:02:41;;;;;;;3.45;1.90;;;;;;;18.65;58.43;97053.59;10480055;28;20183;-22
2022/05/12 23:07:42;;;;;;;2.03;1.77;;;;;;;18.66;58.40;97062.94;10453656;28;20138;-21
2022/05/12 23:12:42;;;;;;;3.17;2.10;;;;;;;18.90;59.84;97055.38;10452717;28;20048;-21
2022/05/12 23:17:43;;;;;;;3.30;2.40;;;;;;;19.09;59.47;97067.31;10452829;28;20037;-22
2022/05/12 23:22:43;;;;;;;2.33;1.80;;;;;;;18.96;58.21;97030.91;10470590;28;20028;-21
2022/05/12 23:27:43;;;;;;;2.80;2.20;;;;;;;18.81;58.13;97027.44;10453149;28;20047;-21
2022/05/12 23:32:44;;;;;;;2.03;1.63;;;;;;;18.76;58.40;97031.69;10468729;28;20314;-21
2022/05/12 23:37:44;;;;;;;2.37;1.80;;;;;;;18.69;58.16;97024.88;10494251;28;20380;-22
2022/05/12 23:42:45;;;;;;;2.28;1.80;;;;;;;18.68;58.35;97013.06;10453068;28;20043;-22
2022/05/12 23:47:45;;;;;;;2.22;1.75;;;;;;;18.68;58.10;97010.50;10452192;28;20032;-22
2022/05/12 23:52:46;;;;;;;1.93;1.73;;;;;;;18.66;58.21;97000.34;10451238;28;20128;-22
2022/05/12 23:57:46;;;;;;;1.73;1.63;;;;;;;18.65;58.67;96992.72;10489756;28;20773;-22
